Time;durP1;ratioP1;P1;durP2;ratioP2;P2;SDS_P1;SDS_P2;PMS_P1;PMS_P2;Temp;Humidity;BMP_temperature;BMP_pressure;BME280_temperature;BME280_humidity;BME280_pressure;Samples;Min_cycle;Max_cycle;Signal;HPM_P1;HPM_P2
2022/11/25 00:00:48;;;;;;;2.53;2.33;;;;;;;9.80;66.99;99130.78;5095166;28;20276;-69
2022/11/25 00:03:15;;;;;;;2.57;2.47;;;;;;;9.77;67.08;99128.53;5095402;28;20195;-70
2022/11/25 00:05:42;;;;;;;3.10;2.90;;;;;;;9.78;67.00;99127.50;5095412;28;20268;-70
2022/11/25 00:08:08;;;;;;;2.70;2.60;;;;;;;9.63;67.53;99127.66;5075456;28;20667;-69
2022/11/25 00:10:35;;;;;;;2.90;2.80;;;;;;;9.63;67.59;99126.81;5074872;28;20254;-69
2022/11/25 00:13:02;;;;;;;2.77;2.53;;;;;;;9.69;66.93;99126.03;5075188;28;20242;-69
2022/11/25 00:15:30;;;;;;;3.63;3.30;;;;;;;9.61;67.63;99127.00;5074475;28;20196;-69
2022/11/25 00:17:57;;;;;;;3.47;3.17;;;;;;;9.59;67.75;99117.63;5074782;28;20682;-70
2022/11/25 00:20:24;;;;;;;2.80;2.60;;;;;;;9.62;67.52;99126.03;5074602;28;20192;-69
2022/11/25 00:22:50;;;;;;;2.93;2.70;;;;;;;9.59;67.50;99129.06;5074421;28;20199;-69
2022/11/25 00:25:17;;;;;;;2.90;2.67;;;;;;;9.72;66.47;99123.78;5074657;28;20617;-69
2022/11/25 00:27:44;;;;;;;2.50;2.40;;;;;;;9.68;66.78;99119.13;5074648;28;20188;-70
2022/11/25 00:30:11;;;;;;;2.77;2.57;;;;;;;9.64;67.05;99123.19;5083643;28;20191;-71
2022/11/25 00:32:39;;;;;;;2.67;2.57;;;;;;;9.70;66.84;99130.31;5095637;28;20596;-70
2022/11/25 00:35:07;;;;;;;4.77;3.37;;;;;;;9.71;66.81;99131.94;5094633;28;20256;-69
2022/11/25 00:37:33;;;;;;;3.00;2.80;;;;;;;9.78;66.33;99127.50;5095023;28;20613;-70
2022/11/25 00:40:00;;;;;;;3.20;2.90;;;;;;;9.79;66.78;99129.13;5094562;28;20241;-69
2022/11/25 00:45:11;;;;;;;2.80;2.70;;;;;;;9.76;66.50;99129.53;5094349;28;20256;-69
2022/11/25 00:47:39;;;;;;;3.03;2.80;;;;;;;9.79;66.72;99129.13;5094181;28;20260;-69
2022/11/25 00:50:07;;;;;;;2.70;2.57;;;;;;;9.78;65.78;99132.78;5094379;28;20279;-70
2022/11/25 00:52:35;;;;;;;2.50;2.40;;;;;;;9.82;65.83;99129.56;5094479;28;20199;-70
2022/11/25 00:55:02;;;;;;;2.60;2.40;;;;;;;9.78;64.65;99133.63;5094302;28;20191;-71
2022/11/25 00:57:29;;;;;;;2.73;2.63;;;;;;;9.75;65.09;99135.84;5094292;28;20195;-70
2022/11/25 00:59:56;;;;;;;3.13;2.13;;;;;;;9.82;64.94;99136.69;5094222;28;20245;-72
2022/11/25 01:02:23;;;;;;;2.60;2.43;;;;;;;9.78;64.68;99130.16;5094192;28;20276;-71
2022/11/25 01:04:51;;;;;;;2.20;2.10;;;;;;;9.77;64.50;99131.16;5093785;28;20658;-71
2022/11/25 01:07:18;;;;;;;2.20;2.10;;;;;;;9.81;63.78;99133.19;5081757;28;20261;-72
2022/11/25 01:09:45;;;;;;;3.20;1.97;;;;;;;9.78;63.87;99138.94;5074340;28;20188;-70
2022/11/25 01:12:11;;;;;;;2.77;2.67;;;;;;;9.82;64.06;99139.34;5073477;28;20195;-71
2022/11/25 01:14:38;;;;;;;2.53;2.33;;;;;;;9.87;63.56;99140.38;5073496;28;20625;-71
2022/11/25 01:17:05;;;;;;;2.10;2.00;;;;;;;9.86;62.94;99145.88;5073458;28;20289;-71
2022/11/25 01:19:32;;;;;;;2.30;2.10;;;;;;;9.84;62.88;99143.41;5074300;28;20188;-71
2022/11/25 01:22:00;;;;;;;2.03;1.93;;;;;;;9.83;63.02;99144.44;5073190;28;20223;-72
2022/11/25 01:24:27;;;;;;;2.10;2.00;;;;;;;9.80;63.37;99147.50;5073501;28;20245;-71
2022/11/25 01:26:54;;;;;;;2.10;2.00;;;;;;;9.76;63.72;99145.47;5073461;28;20246;-70
2022/11/25 01:29:21;;;;;;;2.00;1.90;;;;;;;9.80;63.34;99144.84;5075845;28;20191;-70
2022/11/25 01:31:48;;;;;;;3.37;2.70;;;;;;;9.84;63.55;99148.72;5093306;28;20666;-71
2022/11/25 01:34:17;;;;;;;1.90;1.80;;;;;;;9.81;63.39;99153.63;5093964;28;20195;-71
2022/11/25 01:36:45;;;;;;;1.80;1.70;;;;;;;9.84;63.12;99147.91;5093493;28;20187;-71
2022/11/25 01:39:17;;;;;;;2.20;1.83;;;;;;;9.76;63.74;99153.41;5092843;28;20207;-70
2022/11/25 01:41:44;;;;;;;2.40;1.60;;;;;;;9.76;64.04;99145.47;5093625;28;20261;-70
2022/11/25 01:44:13;;;;;;;1.60;1.57;;;;;;;9.71;63.86;99147.88;5093426;28;20194;-70
2022/11/25 01:46:49;;;;;;;2.47;1.70;;;;;;;9.71;63.89;99139.91;5093346;28;20191;-71
2022/11/25 01:49:19;;;;;;;2.10;2.00;;;;;;;9.51;64.04;99120.44;5093074;28;20742;-70
2022/11/25 01:51:51;;;;;;;2.20;2.00;;;;;;;9.69;63.96;99155.22;5093320;28;20207;-70
2022/11/25 01:54:22;;;;;;;2.13;2.03;;;;;;;9.71;64.02;99159.31;5092976;28;20240;-70
2022/11/25 01:56:54;;;;;;;2.37;2.27;;;;;;;9.70;64.26;99146.22;5092904;28;20562;-70
2022/11/25 01:59:21;;;;;;;2.60;2.37;;;;;;;9.68;64.66;99164.19;5092983;28;20537;-69
2022/11/25 02:01:48;;;;;;;2.27;2.07;;;;;;;9.69;64.52;99163.16;5092610;28;20695;-69
2022/11/25 02:04:19;;;;;;;1.83;1.73;;;;;;;9.63;64.54;99159.47;5092776;28;20636;-70
2022/11/25 02:06:50;;;;;;;2.43;2.33;;;;;;;9.63;64.52;99163.94;5085033;28;20218;-70
2022/11/25 02:09:20;;;;;;;3.23;2.50;;;;;;;9.60;65.12;99161.72;5073009;28;20238;-69
2022/11/25 02:11:47;;;;;;;2.43;2.33;;;;;;;9.66;65.14;99161.72;5072827;28;20199;-70
2022/11/25 02:14:15;;;;;;;2.50;2.27;;;;;;;9.63;65.36;99146.22;5072481;28;20621;-71
2022/11/25 02:16:42;;;;;;;2.30;2.20;;;;;;;9.65;65.30;99164.59;5072123;28;20741;-71
2022/11/25 02:19:17;;;;;;;2.57;2.37;;;;;;;9.64;65.12;99152.34;5072681;28;20227;-69
2022/11/25 02:21:51;;;;;;;2.50;2.40;;;;;;;9.60;65.33;99151.91;5072072;28;20642;-69
2022/11/25 02:24:28;;;;;;;2.30;2.10;;;;;;;9.64;64.85;99157.66;5072681;28;20207;-69
2022/11/25 02:26:56;;;;;;;3.10;2.90;;;;;;;9.71;64.89;99169.06;5072464;28;20312;-70
2022/11/25 02:29:22;;;;;;;3.80;2.80;;;;;;;9.76;65.19;99156.06;5075405;28;20268;-69
2022/11/25 02:31:50;;;;;;;2.80;2.67;;;;;;;9.77;64.77;99168.31;5092498;28;20252;-71
2022/11/25 02:34:17;;;;;;;3.10;2.90;;;;;;;9.76;64.58;99167.47;5092817;28;20670;-70
2022/11/25 02:36:43;;;;;;;3.53;2.60;;;;;;;9.75;65.16;99175.63;5092449;28;20199;-68
2022/11/25 02:39:11;;;;;;;3.70;2.70;;;;;;;9.76;64.40;99161.38;5092531;28;20251;-69
2022/11/25 02:41:41;;;;;;;2.60;2.50;;;;;;;9.87;63.75;99166.06;5092940;28;20215;-68
2022/11/25 02:44:09;;;;;;;2.00;1.90;;;;;;;9.75;63.83;99154.41;5093256;28;20288;-69
2022/11/25 02:46:36;;;;;;;2.50;2.40;;;;;;;9.66;64.85;99151.13;5092651;28;20191;-69
2022/11/25 02:49:04;;;;;;;2.40;2.20;;;;;;;9.66;64.37;99160.91;5091540;28;20187;-69
2022/11/25 02:51:32;;;;;;;2.80;2.70;;;;;;;9.58;64.80;99153.13;5091921;28;20195;-68
2022/11/25 02:53:59;;;;;;;3.33;2.60;;;;;;;9.68;63.79;99165.00;5092278;28;20195;-69
2022/11/25 02:56:28;;;;;;;2.20;2.10;;;;;;;9.64;63.63;99168.25;5074883;28;20728;-69
2022/11/25 02:58:55;;;;;;;2.67;2.57;;;;;;;9.72;63.83;99166.22;5072528;28;20192;-68
2022/11/25 03:01:23;;;;;;;2.93;2.80;;;;;;;9.71;63.50;99161.94;5071578;28;20260;-70
2022/11/25 03:03:49;;;;;;;3.27;2.43;;;;;;;9.71;63.80;99163.78;5071756;28;20745;-70
2022/11/25 03:06:16;;;;;;;2.93;2.63;;;;;;;9.71;63.63;99163.78;5075562;28;20256;-69
2022/11/25 03:08:43;;;;;;;2.77;2.50;;;;;;;9.74;63.63;99155.44;5092770;28;20252;-70
2022/11/25 03:11:10;;;;;;;2.50;2.30;;;;;;;9.67;63.26;99167.84;5092338;28;20191;-70
2022/11/25 03:13:37;;;;;;;3.30;3.00;;;;;;;9.68;63.10;99174.81;5092113;28;20241;-70
2022/11/25 03:16:04;;;;;;;3.00;2.80;;;;;;;9.75;62.98;99167.66;5092146;28;20187;-70
2022/11/25 03:18:32;;;;;;;2.20;2.10;;;;;;;9.82;63.05;99160.56;5092253;28;20280;-70
2022/11/25 03:20:59;;;;;;;2.50;2.30;;;;;;;9.75;62.99;99157.88;5091720;28;20236;-69
2022/11/25 03:23:26;;;;;;;2.73;2.53;;;;;;;9.81;62.80;99165.03;5091668;28;20199;-69
2022/11/25 03:25:52;;;;;;;2.67;2.57;;;;;;;9.72;63.47;99168.09;5092296;28;20190;-69
2022/11/25 03:28:19;;;;;;;2.70;2.60;;;;;;;9.85;63.20;99170.78;5091627;28;20666;-70
2022/11/25 03:30:46;;;;;;;2.73;2.60;;;;;;;9.77;62.71;99168.31;5092211;28;20336;-70
2022/11/25 03:33:12;;;;;;;2.40;2.30;;;;;;;9.71;63.49;99161.13;5091827;28;20252;-70
2022/11/25 03:35:40;;;;;;;2.40;2.30;;;;;;;9.68;63.61;99167.66;5091974;28;20192;-70
2022/11/25 03:38:07;;;;;;;3.20;2.30;;;;;;;9.76;63.29;99161.38;5091492;28;20732;-71
2022/11/25 03:40:34;;;;;;;2.63;2.37;;;;;;;9.77;62.99;99152.38;5091558;28;20248;-71
2022/11/25 03:43:01;;;;;;;7.53;2.60;;;;;;;9.70;62.73;99146.22;5091665;28;20641;-71
2022/11/25 03:45:28;;;;;;;2.50;2.40;;;;;;;9.62;63.39;99160.50;5091849;28;20244;-71
2022/11/25 03:47:54;;;;;;;7.57;2.93;;;;;;;9.68;63.51;99172.16;5091692;28;20191;-71
2022/11/25 03:50:21;;;;;;;2.53;2.43;;;;;;;9.71;62.55;99171.72;5091482;28;20667;-71
2022/11/25 03:52:49;;;;;;;3.33;2.50;;;;;;;9.70;63.17;99178.06;5092104;28;20195;-71
2022/11/25 03:55:16;;;;;;;2.33;2.23;;;;;;;9.71;62.36;99185.81;5092616;28;20191;-71
2022/11/25 03:57:43;;;;;;;3.77;2.60;;;;;;;9.69;63.09;99187.03;5091483;28;20633;-71
2022/11/25 04:00:10;;;;;;;2.67;2.47;;;;;;;9.75;62.52;99187.06;5079258;28;20195;-71
2022/11/25 04:02:37;;;;;;;2.53;2.33;;;;;;;9.70;62.95;99181.53;5074559;28;20760;-71
2022/11/25 04:05:04;;;;;;;2.33;2.23;;;;;;;9.71;63.21;99179.69;5075634;28;20192;-71
2022/11/25 04:07:31;;;;;;;2.30;2.20;;;;;;;9.66;63.54;99184.78;5089131;28;20191;-71
2022/11/25 04:09:59;;;;;;;2.80;2.70;;;;;;;9.64;62.68;99189.47;5096092;28;20187;-72
2022/11/25 04:15:10;;;;;;;2.20;2.10;;;;;;;9.73;63.05;99190.94;5095253;28;20252;-72
2022/11/25 04:17:37;;;;;;;4.80;4.27;;;;;;;9.68;62.71;99196.00;5094732;28;20235;-71
2022/11/25 04:20:04;;;;;;;1.80;1.80;;;;;;;9.54;61.97;99178.41;5094628;28;20651;-70
2022/11/25 04:22:31;;;;;;;2.13;1.93;;;;;;;9.71;62.07;99204.38;5094574;28;20698;-70
2022/11/25 04:24:59;;;;;;;1.90;1.80;;;;;;;9.70;62.59;99199.28;5095297;28;20192;-70
2022/11/25 04:27:26;;;;;;;2.00;1.90;;;;;;;9.75;62.36;99199.50;5095500;28;20247;-69
2022/11/25 04:29:53;;;;;;;3.00;2.80;;;;;;;9.81;62.61;99211.97;5094515;28;20192;-69
2022/11/25 04:32:20;;;;;;;4.20;2.33;;;;;;;9.78;62.33;99213.19;5094723;28;20271;-69
2022/11/25 04:34:47;;;;;;;2.87;2.40;;;;;;;9.86;62.40;99222.81;5095432;28;20199;-69
2022/11/25 04:37:13;;;;;;;3.93;2.53;;;;;;;9.86;62.09;99214.84;5094797;28;20287;-70
2022/11/25 04:39:40;;;;;;;2.47;2.30;;;;;;;9.87;62.02;99211.16;5094727;28;20195;-70
2022/11/25 04:44:52;;;;;;;2.93;2.77;;;;;;;9.83;61.70;99223.19;5093798;28;20183;-71
2022/11/25 04:47:19;;;;;;;2.37;2.17;;;;;;;9.81;62.15;99219.94;5094712;28;20327;-69
2022/11/25 04:49:45;;;;;;;2.53;2.43;;;;;;;9.80;61.93;99232.38;5094225;28;20240;-70
2022/11/25 04:52:12;;;;;;;2.53;2.43;;;;;;;9.68;62.35;99225.97;5094159;28;20658;-68
2022/11/25 04:54:39;;;;;;;2.67;2.50;;;;;;;9.69;61.99;99224.16;5094717;28;20195;-69
2022/11/25 04:57:05;;;;;;;3.13;2.83;;;;;;;9.78;62.62;99230.94;5094644;28;20202;-69
2022/11/25 04:59:38;;;;;;;2.43;2.23;;;;;;;9.72;63.01;99224.56;5093874;28;20681;-66
2022/11/25 05:02:06;;;;;;;3.63;2.63;;;;;;;9.65;62.46;99233.53;5094430;28;20211;-67
2022/11/25 05:04:32;;;;;;;5.03;4.60;;;;;;;9.55;62.91;99228.56;5094218;28;20191;-66
2022/11/25 05:06:59;;;;;;;4.00;3.70;;;;;;;9.47;63.88;99230.56;5084120;28;20223;-66
2022/11/25 05:09:26;;;;;;;3.93;3.70;;;;;;;9.52;63.92;99241.41;5073226;28;20204;-67
2022/11/25 05:11:52;;;;;;;2.80;2.70;;;;;;;9.59;63.03;99245.72;5072991;28;20196;-67
2022/11/25 05:14:19;;;;;;;7.67;2.30;;;;;;;9.65;63.02;99239.63;5073133;28;20655;-67
2022/11/25 05:16:47;;;;;;;5.13;2.70;;;;;;;9.59;62.49;99253.69;5073651;28;20265;-67
2022/11/25 05:19:14;;;;;;;2.43;2.33;;;;;;;9.56;62.54;99261.22;5073648;28;20253;-68
2022/11/25 05:21:41;;;;;;;7.80;2.77;;;;;;;9.59;62.33;99272.25;5073537;28;20188;-67
2022/11/25 05:24:07;;;;;;;2.30;1.90;;;;;;;9.60;62.38;99267.78;5073373;28;20249;-67
2022/11/25 05:26:34;;;;;;;2.27;2.10;;;;;;;9.56;62.23;99275.28;5073511;28;20253;-67
2022/11/25 05:29:01;;;;;;;2.33;2.10;;;;;;;9.63;62.18;99276.16;5073284;28;20192;-67
2022/11/25 05:31:28;;;;;;;3.77;2.13;;;;;;;9.67;61.73;99276.56;5093567;28;20203;-67
2022/11/25 05:33:56;;;;;;;2.57;2.37;;;;;;;9.70;62.03;99273.53;5093435;28;20191;-66
2022/11/25 05:36:22;;;;;;;2.50;2.27;;;;;;;9.63;61.87;99283.28;5093716;28;20191;-67
2022/11/25 05:38:49;;;;;;;2.27;2.17;;;;;;;9.68;62.18;99288.84;5093012;28;20249;-67
2022/11/25 05:41:16;;;;;;;2.77;2.57;;;;;;;9.72;61.57;99295.38;5093675;28;20191;-67
2022/11/25 05:43:42;;;;;;;2.20;1.97;;;;;;;9.62;62.15;99302.84;5093699;28;20215;-68
2022/11/25 05:46:10;;;;;;;2.90;2.63;;;;;;;9.74;62.29;99306.59;5092950;28;20670;-67
2022/11/25 05:48:36;;;;;;;3.00;2.10;;;;;;;9.72;61.71;99314.75;5092494;28;20195;-65
2022/11/25 05:51:05;;;;;;;2.30;2.10;;;;;;;9.70;62.83;99316.78;5090057;28;20732;-67
2022/11/25 05:53:32;;;;;;;2.47;2.27;;;;;;;9.65;62.99;99319.19;5092726;28;20195;-68
2022/11/25 05:56:02;;;;;;;2.27;2.07;;;;;;;9.67;62.60;99325.13;5093466;28;20195;-68
2022/11/25 05:58:30;;;;;;;4.47;2.40;;;;;;;9.64;63.30;99327.34;5092887;28;20199;-67
2022/11/25 06:00:57;;;;;;;1.80;1.70;;;;;;;9.70;62.64;99326.56;5093290;28;20191;-65
2022/11/25 06:03:24;;;;;;;3.23;2.20;;;;;;;9.70;63.54;99331.88;5092820;28;20261;-64
2022/11/25 06:05:50;;;;;;;2.20;2.10;;;;;;;9.72;63.02;99337.81;5092371;28;20675;-67
2022/11/25 06:08:19;;;;;;;33.47;4.30;;;;;;;9.73;62.93;99334.94;5072718;28;20245;-66
2022/11/25 06:10:45;;;;;;;8.53;3.03;;;;;;;9.66;63.40;99344.72;5072616;28;20188;-67
2022/11/25 06:13:12;;;;;;;3.00;2.80;;;;;;;9.83;62.46;99353.16;5072283;28;20195;-65
2022/11/25 06:15:42;;;;;;;5.23;3.30;;;;;;;9.79;62.65;99351.91;5072262;28;20195;-65
2022/11/25 06:18:08;;;;;;;7.90;5.70;;;;;;;9.85;63.05;99356.47;5072119;28;20262;-66
2022/11/25 06:20:35;;;;;;;5.80;4.10;;;;;;;9.82;63.04;99352.38;5073084;28;20245;-65
2022/11/25 06:23:02;;;;;;;3.17;2.90;;;;;;;9.88;63.30;99372.78;5072179;28;20231;-65
2022/11/25 06:25:30;;;;;;;4.57;2.70;;;;;;;9.87;63.52;99365.84;5069176;28;20215;-64
2022/11/25 06:27:58;;;;;;;4.10;3.00;;;;;;;9.87;62.82;99376.47;5076671;28;20198;-64
2022/11/25 06:30:25;;;;;;;2.80;2.60;;;;;;;9.83;63.34;99380.53;5080002;28;20257;-65
2022/11/25 06:32:54;;;;;;;3.77;3.30;;;;;;;9.88;62.82;99385.22;5069424;28;20229;-65
2022/11/25 06:35:21;;;;;;;3.47;3.27;;;;;;;9.97;62.80;99390.19;5069725;28;20245;-63
2022/11/25 06:37:48;;;;;;;5.53;2.77;;;;;;;10.07;62.76;99400.50;5069795;28;20660;-63
2022/11/25 06:40:15;;;;;;;7.60;2.40;;;;;;;10.07;62.11;99403.16;5069175;28;20192;-62
2022/11/25 06:42:43;;;;;;;4.10;2.20;;;;;;;9.97;62.24;99402.66;5070063;28;20224;-66
2022/11/25 06:45:10;;;;;;;4.00;3.70;;;;;;;10.02;62.46;99408.19;5071623;28;20195;-63
2022/11/25 06:47:37;;;;;;;3.13;2.93;;;;;;;10.13;62.28;99413.00;5072380;28;20188;-65
2022/11/25 06:50:05;;;;;;;6.97;4.00;;;;;;;10.12;61.65;99411.34;5070555;28;20690;-65
2022/11/25 06:52:31;;;;;;;3.20;2.73;;;;;;;10.18;61.71;99416.69;5071499;28;20219;-66
2022/11/25 06:54:58;;;;;;;4.27;2.50;;;;;;;10.14;61.20;99426.06;5077612;28;20618;-65
2022/11/25 06:57:25;;;;;;;2.63;2.53;;;;;;;10.15;61.34;99414.44;5092105;28;20187;-65
2022/11/25 06:59:53;;;;;;;4.17;2.50;;;;;;;10.22;61.49;99422.44;5081662;28;20195;-64
2022/11/25 07:02:20;;;;;;;4.60;3.27;;;;;;;10.19;61.90;99422.81;5081747;28;20217;-65
2022/11/25 07:04:47;;;;;;;3.83;2.20;;;;;;;10.23;60.81;99429.38;5080130;28;20251;-65
2022/11/25 07:07:13;;;;;;;3.07;2.23;;;;;;;10.15;60.96;99426.88;5082835;28;20271;-64
2022/11/25 07:09:40;;;;;;;3.03;2.53;;;;;;;10.23;61.80;99434.69;5080931;28;20225;-64
2022/11/25 07:12:07;;;;;;;2.70;2.50;;;;;;;10.28;61.68;99442.88;5091208;28;20210;-65
2022/11/25 07:14:34;;;;;;;3.50;2.13;;;;;;;10.40;61.60;99446.63;5088338;28;20264;-64
2022/11/25 07:17:03;;;;;;;5.83;2.47;;;;;;;10.43;61.84;99440.94;5091214;28;20658;-63
2022/11/25 07:19:34;;;;;;;4.63;2.60;;;;;;;10.27;62.38;99443.91;5092219;28;20183;-63
2022/11/25 07:22:00;;;;;;;4.30;2.47;;;;;;;10.35;64.09;99433.13;5091584;28;20190;-63
2022/11/25 07:24:27;;;;;;;2.47;2.37;;;;;;;10.45;62.12;99449.53;5091467;28;20223;-63
2022/11/25 07:26:54;;;;;;;4.43;4.07;;;;;;;10.34;62.48;99453.53;5091570;28;20195;-63
2022/11/25 07:29:21;;;;;;;4.40;4.00;;;;;;;10.30;62.75;99456.81;5092151;28;20200;-64
2022/11/25 07:31:48;;;;;;;3.40;3.20;;;;;;;10.34;62.24;99458.06;5091759;28;20203;-63
2022/11/25 07:34:19;;;;;;;4.73;3.30;;;;;;;10.22;62.19;99462.25;5091626;28;20195;-63
2022/11/25 07:36:48;;;;;;;6.47;2.50;;;;;;;10.23;62.37;99455.94;5094286;28;20270;-64
2022/11/25 07:39:17;;;;;;;2.50;2.30;;;;;;;10.27;62.33;99467.81;5092548;28;20206;-64
2022/11/25 07:41:44;;;;;;;4.00;2.80;;;;;;;10.24;62.57;99463.69;5095488;28;20195;-63
2022/11/25 07:44:12;;;;;;;14.70;2.93;;;;;;;10.28;62.09;99464.97;5095397;28;20284;-64
2022/11/25 07:46:42;;;;;;;3.33;3.03;;;;;;;10.35;61.85;99476.44;5095206;28;20199;-64
2022/11/25 07:49:10;;;;;;;2.97;2.87;;;;;;;10.44;61.99;99480.59;5085747;28;20192;-65
2022/11/25 07:51:40;;;;;;;4.20;3.13;;;;;;;10.45;62.01;99471.59;5075390;28;20207;-66
2022/11/25 07:54:09;;;;;;;12.43;3.40;;;;;;;10.54;61.15;99480.22;5075350;28;20199;-65
2022/11/25 07:56:38;;;;;;;2.93;2.30;;;;;;;10.47;60.76;99482.03;5089559;28;20202;-64
2022/11/25 07:59:06;;;;;;;2.70;2.50;;;;;;;10.42;60.52;99481.78;5094582;28;20248;-64
2022/11/25 08:01:33;;;;;;;2.20;2.10;;;;;;;10.55;60.14;99487.19;5093862;28;20609;-64
2022/11/25 08:04:00;;;;;;;6.10;2.40;;;;;;;10.62;60.60;99498.66;5093197;28;20223;-65
2022/11/25 08:06:29;;;;;;;2.70;2.50;;;;;;;10.59;60.16;99494.53;5088494;28;20238;-64
2022/11/25 08:08:58;;;;;;;5.33;2.67;;;;;;;10.76;59.63;99492.41;5072563;28;20660;-64
2022/11/25 08:11:27;;;;;;;7.20;2.67;;;;;;;10.63;59.21;99474.53;5072680;28;20194;-64
2022/11/25 08:13:55;;;;;;;10.67;3.00;;;;;;;10.88;59.28;99496.97;5074283;28;20245;-65
2022/11/25 08:16:25;;;;;;;12.50;3.10;;;;;;;10.99;59.01;99511.53;5072361;28;20264;-64
2022/11/25 08:18:51;;;;;;;3.60;2.60;;;;;;;10.86;59.49;99511.44;5074184;28;20238;-65
2022/11/25 08:21:19;;;;;;;4.27;2.60;;;;;;;10.81;59.55;99503.25;5074638;28;20189;-65
2022/11/25 08:23:47;;;;;;;5.97;3.07;;;;;;;10.74;59.82;99507.69;5074479;28;20699;-65
2022/11/25 08:26:18;;;;;;;5.63;2.57;;;;;;;10.85;59.21;99512.47;5074209;28;20651;-65
2022/11/25 08:28:45;;;;;;;3.07;2.77;;;;;;;10.79;58.70;99478.72;5075248;28;20245;-64
2022/11/25 08:31:15;;;;;;;6.23;4.43;;;;;;;11.43;57.81;99513.72;5091578;28;20749;-64
2022/11/25 08:33:42;;;;;;;5.53;4.10;;;;;;;11.68;56.87;99518.28;5094729;28;20199;-64
2022/11/25 08:36:10;;;;;;;5.30;3.23;;;;;;;11.96;55.78;99508.28;5085822;28;20197;-66
2022/11/25 08:38:37;;;;;;;3.23;2.93;;;;;;;12.22;54.51;99510.13;5093907;28;20738;-64
2022/11/25 08:41:08;;;;;;;2.83;2.63;;;;;;;12.49;53.85;99509.88;5094049;28;20621;-65
2022/11/25 08:43:36;;;;;;;6.77;3.87;;;;;;;12.65;53.98;99490.78;5094901;28;20262;-64
2022/11/25 08:46:09;;;;;;;9.70;5.87;;;;;;;13.08;53.25;99507.09;5073783;28;20205;-64
2022/11/25 08:48:36;;;;;;;5.13;2.43;;;;;;;13.34;49.84;99502.44;5072700;28;20705;-63
2022/11/25 08:51:09;;;;;;;2.40;2.20;;;;;;;13.62;49.83;99510.09;5074081;28;20203;-67
2022/11/25 08:53:37;;;;;;;25.00;2.93;;;;;;;13.88;46.50;99504.59;5092207;28;20223;-64
2022/11/25 08:56:04;;;;;;;2.70;2.00;;;;;;;13.79;46.76;99516.53;5093937;28;20199;-65
2022/11/25 08:58:31;;;;;;;2.83;2.50;;;;;;;13.70;46.43;99491.97;5093976;28;20196;-64
2022/11/25 09:00:59;;;;;;;2.60;1.80;;;;;;;14.32;44.72;99512.44;5093822;28;20187;-65
2022/11/25 09:03:26;;;;;;;4.93;1.50;;;;;;;13.98;44.28;99515.59;5094103;28;20252;-65
2022/11/25 09:05:53;;;;;;;18.80;4.30;;;;;;;14.13;43.61;99514.22;5094446;28;20253;-63
2022/11/25 09:08:21;;;;;;;3.10;1.80;;;;;;;14.18;43.76;99506.38;5094116;28;20221;-65
2022/11/25 09:10:47;;;;;;;5.63;1.63;;;;;;;14.60;42.64;99505.59;5093697;28;20195;-65
2022/11/25 09:13:14;;;;;;;2.03;1.70;;;;;;;14.90;42.27;99506.50;5094102;28;20556;-66
2022/11/25 09:15:41;;;;;;;10.97;2.00;;;;;;;14.68;41.46;99513.34;5093956;28;20191;-66
2022/11/25 09:18:11;;;;;;;5.20;1.73;;;;;;;14.39;42.83;99502.53;5094080;28;20374;-63
2022/11/25 09:20:40;;;;;;;16.00;2.50;;;;;;;14.34;42.40;99505.84;5093576;28;20278;-65
2022/11/25 09:23:08;;;;;;;2.03;1.80;;;;;;;14.53;42.50;99515.53;5094239;28;20223;-65
2022/11/25 09:25:35;;;;;;;2.40;2.20;;;;;;;14.58;42.65;99515.69;5093701;28;20191;-65
2022/11/25 09:28:02;;;;;;;5.20;2.50;;;;;;;14.69;42.17;99520.31;5093405;28;20245;-64
2022/11/25 09:30:29;;;;;;;3.33;1.70;;;;;;;14.50;42.17;99521.31;5093521;28;20236;-64
2022/11/25 09:32:56;;;;;;;13.27;2.20;;;;;;;14.29;41.29;99507.56;5093530;28;20188;-67
2022/11/25 09:35:26;;;;;;;5.23;1.60;;;;;;;13.96;41.71;99531.81;5093590;28;20241;-66
2022/11/25 09:37:52;;;;;;;4.47;2.00;;;;;;;13.87;41.04;99516.28;5072841;28;20733;-66
2022/11/25 09:40:21;;;;;;;2.63;1.83;;;;;;;13.98;41.43;99515.59;5073771;28;20192;-67
2022/11/25 09:48:52;;;;;;;6.73;2.00;;;;;;;14.71;40.51;99523.56;5093094;28;20668;-63
2022/11/25 09:51:23;;;;;;;1.97;1.87;;;;;;;14.91;40.03;99518.03;5093142;28;20244;-64
2022/11/25 09:53:53;;;;;;;3.00;1.67;;;;;;;14.67;39.71;99519.69;5092975;28;20651;-64
2022/11/25 09:56:28;;;;;;;2.27;2.07;;;;;;;14.65;40.17;99512.94;5092740;28;20239;-63
2022/11/25 09:58:59;;;;;;;5.57;2.30;;;;;;;14.83;39.42;99497.72;5093159;28;20240;-64
2022/11/25 10:01:29;;;;;;;12.83;1.90;;;;;;;15.09;39.57;99504.63;5093878;28;20192;-64
2022/11/25 10:04:00;;;;;;;3.93;1.70;;;;;;;14.94;38.99;99498.84;5092628;28;20255;-63
2022/11/25 10:06:31;;;;;;;3.00;1.50;;;;;;;14.72;39.81;99497.66;5092538;28;20664;-63
2022/11/25 10:08:59;;;;;;;9.80;1.73;;;;;;;14.99;38.82;99499.00;5093480;28;20245;-64
2022/11/25 10:11:34;;;;;;;3.63;1.77;;;;;;;15.05;39.24;99501.59;5076967;28;20188;-64
2022/11/25 10:14:07;;;;;;;3.17;1.97;;;;;;;15.21;39.00;99500.16;5072321;28;20697;-64
2022/11/25 10:16:45;;;;;;;4.20;2.03;;;;;;;14.74;39.13;99488.38;5072061;28;20713;-64
2022/11/25 10:19:19;;;;;;;2.20;1.70;;;;;;;14.83;39.37;99492.38;5072667;28;20192;-64
2022/11/25 10:21:47;;;;;;;2.90;2.60;;;;;;;14.95;39.31;99495.13;5072016;28;20179;-63
2022/11/25 10:24:16;;;;;;;2.30;1.40;;;;;;;15.16;37.75;99495.47;5071986;28;20216;-63
2022/11/25 10:26:44;;;;;;;1.53;1.43;;;;;;;15.12;38.04;99494.28;5071950;28;20196;-63
2022/11/25 10:29:27;;;;;;;2.00;1.83;;;;;;;15.06;37.84;99494.38;5072738;28;20196;-64
2022/11/25 10:32:01;;;;;;;1.80;1.30;;;;;;;14.40;38.70;99496.97;5092770;28;20270;-66
2022/11/25 10:34:36;;;;;;;2.57;1.50;;;;;;;14.55;50.75;99475.22;5092026;28;20191;-68
2022/11/25 10:37:09;;;;;;;3.67;1.73;;;;;;;14.99;44.02;99482.94;5092089;28;20731;-64
2022/11/25 10:39:36;;;;;;;2.33;1.93;;;;;;;15.19;39.93;99495.03;5092554;28;20183;-66
2022/11/25 10:42:06;;;;;;;4.13;2.07;;;;;;;15.42;49.36;99479.13;5092260;28;20222;-67
2022/11/25 10:44:35;;;;;;;4.40;2.10;;;;;;;15.49;38.88;99495.88;5092170;28;20703;-67
2022/11/25 10:47:15;;;;;;;2.73;1.40;;;;;;;15.65;37.97;99495.25;5092518;28;20195;-67
2022/11/25 10:49:51;;;;;;;2.23;1.53;;;;;;;15.45;38.07;99497.38;5091985;28;20179;-69
2022/11/25 10:52:23;;;;;;;2.90;1.60;;;;;;;15.35;37.56;99494.44;5091040;28;20240;-68
2022/11/25 10:54:57;;;;;;;1.77;1.67;;;;;;;15.07;38.47;99486.13;5091335;28;20250;-67
2022/11/25 10:57:27;;;;;;;3.30;1.93;;;;;;;15.01;38.43;99492.38;5091011;28;20539;-68
2022/11/25 10:59:57;;;;;;;2.27;1.77;;;;;;;15.07;39.17;99496.81;5087078;28;20183;-67
2022/11/25 11:02:27;;;;;;;2.43;2.00;;;;;;;15.19;38.41;99495.03;5087280;28;20278;-68
2022/11/25 11:04:58;;;;;;;1.70;1.60;;;;;;;15.09;38.04;99478.72;5086985;28;20268;-68
2022/11/25 11:07:28;;;;;;;3.00;2.07;;;;;;;15.22;37.75;99475.84;5072452;28;20184;-67
2022/11/25 11:10:14;;;;;;;3.10;1.60;;;;;;;15.26;37.90;99487.75;5066621;28;20543;-68
2022/11/25 11:12:55;;;;;;;1.50;1.40;;;;;;;15.13;37.85;99501.28;5070194;28;20183;-69
2022/11/25 11:15:24;;;;;;;6.83;2.07;;;;;;;15.31;37.92;99509.28;5068650;28;20313;-66
2022/11/25 11:17:51;;;;;;;4.83;1.90;;;;;;;15.02;38.16;99496.69;5069211;28;20277;-68
2022/11/25 11:20:23;;;;;;;7.33;1.90;;;;;;;14.80;38.46;99489.34;5070578;28;20557;-67
2022/11/25 11:22:57;;;;;;;2.77;1.57;;;;;;;14.82;38.56;99500.63;5070474;28;20659;-66
2022/11/25 11:25:30;;;;;;;2.23;1.50;;;;;;;14.59;38.93;99490.59;5071895;28;20203;-65
2022/11/25 11:27:58;;;;;;;6.87;2.00;;;;;;;14.63;39.13;99489.09;5071860;28;20184;-66
2022/11/25 11:30:26;;;;;;;2.57;1.93;;;;;;;14.73;39.36;99494.75;5072626;28;20188;-66
2022/11/25 11:33:05;;;;;;;1.57;1.40;;;;;;;14.50;39.56;99467.84;5073096;28;20626;-66
2022/11/25 11:35:47;;;;;;;1.90;1.70;;;;;;;14.77;40.07;99495.97;5072435;28;20199;-66
2022/11/25 11:38:33;;;;;;;2.50;2.10;;;;;;;14.90;39.61;99494.97;5092678;28;20248;-67
2022/11/25 11:41:08;;;;;;;3.73;2.13;;;;;;;14.93;39.28;99499.88;5093229;28;20681;-66
2022/11/25 11:43:59;;;;;;;2.00;1.90;;;;;;;14.59;39.83;99497.81;5092737;28;20319;-65
2022/11/25 11:46:42;;;;;;;3.80;1.90;;;;;;;14.63;39.51;99494.44;5094060;28;20217;-67
2022/11/25 11:49:35;;;;;;;4.57;1.80;;;;;;;14.55;39.87;99488.59;5093284;28;20184;-65
2022/11/25 11:52:11;;;;;;;4.07;2.23;;;;;;;14.61;40.08;99490.38;5080973;28;20234;-65
2022/11/25 11:54:44;;;;;;;2.20;2.00;;;;;;;14.64;39.95;99495.28;5081089;28;20280;-66
2022/11/25 11:57:25;;;;;;;5.27;2.20;;;;;;;14.48;39.89;99475.28;5093031;28;20180;-66